Terminal Aerodrome Forecast
Issued by NWS

Home | Current Version | Previous Version | Graphics & Text | Print | Product List | Glossary On
Versions: 1 2 3 4 5 6 7 8 9 10 11 12 13 14 15 16 17 18 19 20 21 22 23
000
FTUS43 KTOP 252059 AAA
TAFMHK
TAF AMD
KMHK 252059Z 2521/2618 01008KT 6SM -RA OVC015
     FM252300 36006KT P6SM OVC035
     FM260200 VRB03KT P6SM FEW200=

USA.gov is the U.S. government's official web portal to all federal, state and local government web resources and services.